createdAt,value
2023-02-19T00:17:04.113Z,190.80
2023-02-19T00:18:04.041Z,183.53
2023-02-19T00:19:04.030Z,182.08
2023-02-19T00:20:04.020Z,189.27
2023-02-19T00:21:04.023Z,194.32
2023-02-19T00:22:03.981Z,192.60
2023-02-19T00:23:03.969Z,193.76
2023-02-19T00:24:03.950Z,193.03
2023-02-19T00:25:03.950Z,195.41
2023-02-19T00:26:17.195Z,199.60
2023-02-19T00:28:03.882Z,199.68
2023-02-19T00:29:03.877Z,200.10
2023-02-19T00:30:03.883Z,201.69
2023-02-19T00:31:03.896Z,203.70
2023-02-19T00:32:03.836Z,203.32
2023-02-19T00:33:03.819Z,201.53
2023-02-19T00:34:03.804Z,203.62
2023-02-19T00:35:03.807Z,205.45
2023-02-19T00:36:03.767Z,203.35
2023-02-19T00:37:03.756Z,205.78
2023-02-19T00:38:03.741Z,204.14
2023-02-19T00:39:03.750Z,210.46
2023-02-19T00:40:03.749Z,203.92
2023-02-19T00:41:03.706Z,208.45
2023-02-19T00:42:03.687Z,207.69
2023-02-19T00:43:03.676Z,206.88
2023-02-19T00:44:03.676Z,208.66
2023-02-19T00:45:03.646Z,207.96
2023-02-19T00:46:03.687Z,204.94
2023-02-19T00:47:03.653Z,206.22
2023-02-19T00:48:03.612Z,209.17
2023-02-19T00:49:03.629Z,208.24
2023-02-19T00:50:03.590Z,210.37
2023-02-19T00:51:03.584Z,213.56
2023-02-19T00:52:03.592Z,210.79
2023-02-19T00:53:03.591Z,215.02
2023-02-19T00:54:03.549Z,216.76
2023-02-19T00:55:03.536Z,214.36
2023-02-19T00:56:03.555Z,213.56
2023-02-19T00:57:03.523Z,212.14
2023-02-19T00:58:03.497Z,215.39
2023-02-19T00:59:03.491Z,215.44
2023-02-19T01:01:03.474Z,213.93
2023-02-19T01:02:03.462Z,214.27
2023-02-19T01:03:03.453Z,214.06
2023-02-19T01:04:06.231Z,219.32
2023-02-19T01:05:03.411Z,219.85
2023-02-19T01:06:03.415Z,220.08
2023-02-19T01:07:03.395Z,219.95
2023-02-19T01:08:03.367Z,220.26
2023-02-19T01:09:03.368Z,220.14
2023-02-19T01:10:03.330Z,220.26
2023-02-19T01:11:03.337Z,217.23
2023-02-19T01:12:03.308Z,218.88
2023-02-19T01:13:03.292Z,224.30
2023-02-19T01:14:03.278Z,225.64
2023-02-19T01:15:03.273Z,224.71
2023-02-19T01:16:03.281Z,222.17
2023-02-19T01:17:03.256Z,226.14
2023-02-19T01:18:03.221Z,223.77
2023-02-19T01:19:03.212Z,223.64
2023-02-19T01:20:03.208Z,220.75
2023-02-19T01:21:03.259Z,220.58
2023-02-19T01:22:03.176Z,225.57
2023-02-19T01:23:03.180Z,225.22
2023-02-19T01:24:03.159Z,223.88
2023-02-19T01:25:03.144Z,220.60
2023-02-19T01:26:03.119Z,220.33
2023-02-19T01:27:03.105Z,225.07
2023-02-19T01:28:03.092Z,223.87
2023-02-19T01:29:03.110Z,216.85
2023-02-19T01:30:03.124Z,214.80
2023-02-19T01:31:03.092Z,219.83
2023-02-19T01:32:03.095Z,222.85
2023-02-19T01:33:03.026Z,228.54
2023-02-19T01:34:03.016Z,231.02
2023-02-19T01:35:02.995Z,222.97
2023-02-19T01:36:02.977Z,222.94
2023-02-19T01:37:02.969Z,220.07
2023-02-19T01:38:02.968Z,224.33
2023-02-19T01:39:02.947Z,230.44
2023-02-19T01:40:02.938Z,233.64
2023-02-19T01:41:02.919Z,233.46
2023-02-19T01:42:02.911Z,233.56
2023-02-19T01:43:02.909Z,228.90
2023-02-19T01:44:02.888Z,228.80
2023-02-19T01:45:02.892Z,229.77
2023-02-19T01:46:02.884Z,228.41
2023-02-19T01:47:02.879Z,227.58
2023-02-19T01:48:02.862Z,226.46
2023-02-19T01:49:02.853Z,223.54
2023-02-19T01:50:02.843Z,225.73
2023-02-19T01:51:02.863Z,223.71
2023-02-19T01:52:02.820Z,226.07
2023-02-19T01:53:02.803Z,228.78
2023-02-19T01:54:02.791Z,226.02
2023-02-19T01:55:02.782Z,224.34
2023-02-19T01:56:02.773Z,221.35
2023-02-19T01:57:02.760Z,222.65
2023-02-19T01:59:02.740Z,219.79
2023-02-19T02:00:02.729Z,220.40
2023-02-19T02:01:02.774Z,219.14
2023-02-19T02:02:02.750Z,217.34
2023-02-19T02:03:02.703Z,217.67
2023-02-19T02:04:02.676Z,219.11
2023-02-19T02:05:02.673Z,218.71
2023-02-19T02:06:02.648Z,221.54
2023-02-19T02:07:02.645Z,222.53
2023-02-19T02:08:02.641Z,222.03
2023-02-19T02:09:02.627Z,220.46
2023-02-19T02:10:02.611Z,221.37
2023-02-19T02:11:02.627Z,220.58
2023-02-19T02:12:02.583Z,215.10
2023-02-19T02:13:02.580Z,219.74
2023-02-19T02:14:02.581Z,218.30
2023-02-19T02:15:02.554Z,220.15
2023-02-19T02:16:02.585Z,218.47
2023-02-19T02:17:02.537Z,218.41
2023-02-19T02:18:02.529Z,220.06
2023-02-19T02:19:02.516Z,213.67
2023-02-19T02:20:02.491Z,216.62
2023-02-19T02:21:02.488Z,214.18
2023-02-19T02:22:02.469Z,207.23
2023-02-19T02:23:02.466Z,210.70
2023-02-19T02:24:02.442Z,214.86
2023-02-19T02:25:02.436Z,208.07
2023-02-19T02:26:02.413Z,214.79
2023-02-19T02:27:02.412Z,209.66
2023-02-19T02:28:02.407Z,210.13
2023-02-19T02:29:02.410Z,207.50
2023-02-19T02:30:02.424Z,205.81
2023-02-19T02:31:02.396Z,204.60
2023-02-19T02:32:02.468Z,207.30
2023-02-19T02:33:02.355Z,207.52
2023-02-19T02:34:02.346Z,205.86
2023-02-19T02:35:02.320Z,209.07
2023-02-19T02:36:02.315Z,208.03
2023-02-19T02:37:02.313Z,203.60
2023-02-19T02:38:02.311Z,204.66
2023-02-19T02:39:02.285Z,203.34
2023-02-19T02:40:02.267Z,199.20
2023-02-19T02:41:02.256Z,201.34
2023-02-19T02:42:02.234Z,203.97
2023-02-19T02:43:02.220Z,205.56
2023-02-19T02:44:02.208Z,197.27
2023-02-19T02:45:02.194Z,193.36
2023-02-19T02:46:02.203Z,201.65
2023-02-19T02:47:02.162Z,199.76
2023-02-19T02:48:02.135Z,198.44
2023-02-19T02:49:02.129Z,195.73
2023-02-19T02:50:02.123Z,199.30
2023-02-19T02:51:02.100Z,200.85
2023-02-19T02:52:02.078Z,199.67
2023-02-19T02:53:02.073Z,202.59
2023-02-19T02:54:02.068Z,203.50
2023-02-19T02:55:02.797Z,201.91
2023-02-19T02:56:02.034Z,204.63
2023-02-19T02:57:02.016Z,206.03
2023-02-19T02:58:01.999Z,206.56
2023-02-19T02:59:02.018Z,204.04
2023-02-19T03:00:01.973Z,207.25
2023-02-19T03:01:02.039Z,206.27
2023-02-19T03:02:01.985Z,206.42
2023-02-19T03:03:01.920Z,207.27
2023-02-19T03:04:01.957Z,210.36
2023-02-19T03:05:01.890Z,211.91
2023-02-19T03:06:01.884Z,210.16
2023-02-19T03:07:01.863Z,207.13
2023-02-19T03:08:01.872Z,208.24
2023-02-19T03:09:01.845Z,208.40
2023-02-19T03:10:01.864Z,204.95
2023-02-19T03:11:01.830Z,200.30
2023-02-19T03:12:01.799Z,209.68
2023-02-19T03:13:01.803Z,205.70
2023-02-19T03:14:01.768Z,209.62
2023-02-19T03:15:01.768Z,209.22
2023-02-19T03:16:01.759Z,211.31
2023-02-19T03:17:01.740Z,211.08
2023-02-19T03:18:01.709Z,213.34
2023-02-19T03:19:01.703Z,217.00
2023-02-19T03:20:01.692Z,215.66
2023-02-19T03:21:01.678Z,217.04
2023-02-19T03:22:01.666Z,222.28
2023-02-19T03:23:01.667Z,223.43
2023-02-19T03:24:01.633Z,222.91
2023-02-19T03:25:01.642Z,221.04
2023-02-19T03:26:01.615Z,219.95
2023-02-19T03:27:01.609Z,221.95
2023-02-19T03:28:01.587Z,224.69
2023-02-19T03:29:01.575Z,221.83
2023-02-19T03:30:01.644Z,225.95
2023-02-19T03:31:01.563Z,227.71
2023-02-19T03:32:01.670Z,229.25
2023-02-19T03:33:01.513Z,226.69
2023-02-19T03:34:01.489Z,227.09
2023-02-19T03:35:01.489Z,226.50
2023-02-19T03:36:01.480Z,227.15
2023-02-19T03:37:01.468Z,230.26
2023-02-19T03:38:01.431Z,229.39
2023-02-19T03:39:01.421Z,228.92
2023-02-19T03:40:01.413Z,228.75
2023-02-19T03:41:01.389Z,232.33
2023-02-19T03:42:01.378Z,232.26
2023-02-19T03:43:01.364Z,231.97
2023-02-19T03:44:01.352Z,229.93
2023-02-19T03:45:01.343Z,235.45
2023-02-19T03:46:01.337Z,237.18
2023-02-19T03:47:01.305Z,229.53
2023-02-19T03:48:01.294Z,231.64
2023-02-19T03:49:01.309Z,234.02
2023-02-19T03:50:01.265Z,236.45
2023-02-19T03:51:01.264Z,234.69
2023-02-19T03:52:01.249Z,233.36
2023-02-19T03:53:01.234Z,231.14
2023-02-19T03:54:01.233Z,233.34
2023-02-19T08:36:20.051Z,231.29
2023-02-19T11:06:54.990Z,29.69
2023-02-19T11:07:54.962Z,30.80
2023-02-19T11:08:54.908Z,27.75
2023-02-19T11:09:54.885Z,28.29
2023-02-19T11:10:54.826Z,32.98
2023-02-19T11:11:54.788Z,30.06
2023-02-19T11:12:54.748Z,31.48
2023-02-19T11:13:54.706Z,33.24
2023-02-19T11:14:54.662Z,34.92
2023-02-19T11:15:54.633Z,29.22
2023-02-19T11:16:54.577Z,36.61
2023-02-19T11:17:54.534Z,38.58
2023-02-19T11:18:56.887Z,49.76
2023-02-19T11:19:54.588Z,48.45
2023-02-19T11:20:54.559Z,39.42
2023-02-19T11:21:54.494Z,36.58
2023-02-19T11:22:54.451Z,24.98
2023-02-19T11:23:54.423Z,32.02
2023-02-19T11:24:57.840Z,28.08
2023-02-19T11:25:54.325Z,28.12
2023-02-19T11:26:54.270Z,29.33
2023-02-19T11:27:54.230Z,22.00
2023-02-19T11:28:54.191Z,29.21
2023-02-19T11:29:54.158Z,43.37
2023-02-19T11:30:54.132Z,34.96
2023-02-19T11:31:54.092Z,29.45
2023-02-19T11:32:54.019Z,29.86
2023-02-19T11:33:53.969Z,29.28
2023-02-19T11:34:53.915Z,30.21
2023-02-19T11:35:53.889Z,33.87
2023-02-19T11:36:53.832Z,37.10
2023-02-19T11:37:53.797Z,44.26
2023-02-19T11:38:53.761Z,50.18
2023-02-19T11:39:53.712Z,50.58
2023-02-19T11:40:53.656Z,54.65
2023-02-19T11:41:53.636Z,57.15
2023-02-19T11:42:53.575Z,56.51
2023-02-19T11:43:53.523Z,56.28
2023-02-19T11:44:53.484Z,45.15
2023-02-19T11:45:53.441Z,35.68
2023-02-19T11:46:53.435Z,31.17
2023-02-19T11:47:53.358Z,31.08
2023-02-19T11:48:53.322Z,40.45
2023-02-19T11:49:53.284Z,43.48
2023-02-19T11:50:53.252Z,42.54
2023-02-19T11:51:53.227Z,39.80
2023-02-19T11:52:53.164Z,35.85
2023-02-19T11:53:53.126Z,31.12
2023-02-19T11:54:53.077Z,28.48
2023-02-19T11:55:53.042Z,31.70
2023-02-19T11:56:53.011Z,31.49
2023-02-19T11:57:52.967Z,32.54
2023-02-19T11:58:52.922Z,33.86
2023-02-19T11:59:52.868Z,32.32
2023-02-19T12:00:52.843Z,23.82
2023-02-19T12:01:52.810Z,26.00
2023-02-19T12:02:52.741Z,31.00
2023-02-19T12:03:52.700Z,25.04
2023-02-19T12:04:52.687Z,26.05
2023-02-19T12:05:52.631Z,25.36
2023-02-19T12:06:52.595Z,33.28
2023-02-19T12:07:52.553Z,40.00
2023-02-19T12:08:52.500Z,40.80
2023-02-19T12:09:52.568Z,44.11
2023-02-19T12:10:52.414Z,44.17
2023-02-19T12:11:52.374Z,48.66
2023-02-19T12:12:52.350Z,45.70
2023-02-19T12:13:52.289Z,48.45
2023-02-19T12:14:52.258Z,44.16
2023-02-19T12:15:52.197Z,46.56
2023-02-19T12:16:52.160Z,51.18
2023-02-19T12:17:52.105Z,49.28
2023-02-19T12:18:52.068Z,43.31
2023-02-19T12:19:52.053Z,44.02
2023-02-19T12:20:51.995Z,43.54
2023-02-19T12:21:51.951Z,46.90
2023-02-19T12:22:51.911Z,42.64
2023-02-19T12:23:51.866Z,40.17
2023-02-19T12:24:51.842Z,35.55
2023-02-19T12:25:51.793Z,34.82
2023-02-19T12:26:51.758Z,38.53
2023-02-19T12:27:51.702Z,38.65
2023-02-19T12:28:51.678Z,38.88
2023-02-19T12:29:51.633Z,43.15
2023-02-19T12:30:51.596Z,43.16
2023-02-19T12:31:51.574Z,32.03
2023-02-19T12:32:51.510Z,32.04
2023-02-19T12:33:51.462Z,42.96
2023-02-19T12:34:51.441Z,46.11
2023-02-19T12:35:51.388Z,40.39
2023-02-19T12:36:51.358Z,41.80
2023-02-19T12:37:51.312Z,43.06
2023-02-19T12:38:51.274Z,43.21
2023-02-19T12:39:51.249Z,43.24
2023-02-19T14:40:46.972Z,30.68
2023-02-19T14:41:46.929Z,38.38
2023-02-19T14:42:46.906Z,38.22
2023-02-19T14:43:46.864Z,40.81
2023-02-19T14:44:46.836Z,37.14
2023-02-19T14:45:46.800Z,39.37
2023-02-19T14:46:46.797Z,35.35
2023-02-19T14:47:46.748Z,36.86
2023-02-19T14:48:46.737Z,34.70
2023-02-19T14:49:46.709Z,35.43
2023-02-19T14:50:46.672Z,38.42
2023-02-19T14:51:46.683Z,36.96
2023-02-19T14:52:46.637Z,40.34
2023-02-19T14:53:46.642Z,42.99
2023-02-19T14:54:46.618Z,40.15
2023-02-19T14:55:46.540Z,39.84
2023-02-19T14:56:46.515Z,36.60
2023-02-19T14:57:46.477Z,40.80
2023-02-19T14:58:46.430Z,39.44
2023-02-19T14:59:46.363Z,39.96
2023-02-19T15:00:46.327Z,39.91
2023-02-19T15:01:46.342Z,43.76
2023-02-19T15:02:46.247Z,46.22
2023-02-19T15:03:46.214Z,46.30
2023-02-19T15:04:46.226Z,55.71
2023-02-19T15:05:46.150Z,52.82
2023-02-19T15:06:46.090Z,49.85
2023-02-19T15:07:46.051Z,52.00
2023-02-19T15:08:46.023Z,58.80
2023-02-19T15:09:45.984Z,61.83
2023-02-19T15:10:45.925Z,55.51
2023-02-19T15:11:45.889Z,59.37
2023-02-19T15:12:45.854Z,58.23
2023-02-19T15:13:45.822Z,57.53
2023-02-19T15:14:45.776Z,60.60
2023-02-19T15:15:45.743Z,60.98
2023-02-19T15:16:45.687Z,59.81
2023-02-19T15:17:45.687Z,57.58
2023-02-19T15:18:45.619Z,61.98
2023-02-19T15:19:45.584Z,58.42
2023-02-19T15:20:45.556Z,59.17
2023-02-19T15:21:45.513Z,61.90
2023-02-19T15:22:45.491Z,60.17
2023-02-19T15:23:45.456Z,59.79
2023-02-19T15:24:48.176Z,60.96
2023-02-19T15:25:45.368Z,66.97
2023-02-19T15:26:45.336Z,67.68
2023-02-19T15:27:45.292Z,66.93
2023-02-19T15:28:45.273Z,73.13
2023-02-19T15:29:45.213Z,70.34
2023-02-19T15:30:45.183Z,68.64
2023-02-19T15:31:45.254Z,73.12
2023-02-19T15:32:45.114Z,68.89
2023-02-19T15:33:45.074Z,68.42
2023-02-19T15:34:45.039Z,69.15
2023-02-19T15:35:45.004Z,72.10
2023-02-19T15:36:44.974Z,78.38
2023-02-19T15:37:44.942Z,80.75
2023-02-19T15:38:44.910Z,74.89
2023-02-19T15:39:44.878Z,75.37
2023-02-19T15:40:44.833Z,81.65
2023-02-19T15:41:44.820Z,85.25
2023-02-19T15:42:44.774Z,84.87
2023-02-19T15:43:44.727Z,81.44
2023-02-19T15:44:44.685Z,86.38
2023-02-19T15:45:44.655Z,80.85
2023-02-19T15:46:44.677Z,86.05
2023-02-19T15:47:44.585Z,87.21
2023-02-19T15:48:44.553Z,87.82
2023-02-19T15:49:44.521Z,96.56
2023-02-19T15:50:44.492Z,94.24
2023-02-19T15:51:44.471Z,94.02
2023-02-19T15:52:44.422Z,92.98
2023-02-19T15:53:44.389Z,90.71
2023-02-19T15:54:44.359Z,84.29
2023-02-19T15:55:44.335Z,89.42
2023-02-19T15:56:44.299Z,90.63
2023-02-19T15:57:44.260Z,85.25
2023-02-19T15:58:44.246Z,93.82
2023-02-19T15:59:44.196Z,93.86
2023-02-19T16:00:44.166Z,91.47
2023-02-19T16:01:44.210Z,93.90
2023-02-19T16:02:44.104Z,100.15
2023-02-19T16:03:44.065Z,100.13
2023-02-19T16:04:44.034Z,85.05
2023-02-19T16:05:43.994Z,84.41
2023-02-19T16:06:43.960Z,96.37
2023-02-19T16:07:43.942Z,96.69
2023-02-19T16:08:43.889Z,96.23
2023-02-19T16:09:43.870Z,97.89
2023-02-19T16:10:43.836Z,99.84
2023-02-19T16:11:43.802Z,97.82
2023-02-19T16:12:43.773Z,93.26
2023-02-19T16:13:43.739Z,92.31
2023-02-19T16:14:43.707Z,95.03
2023-02-19T16:15:43.674Z,95.46
2023-02-19T16:16:43.648Z,103.27
2023-02-19T16:17:43.627Z,105.60
2023-02-19T16:18:43.590Z,107.98
2023-02-19T16:19:43.563Z,95.33
2023-02-19T16:20:43.521Z,104.38
2023-02-19T16:21:43.486Z,105.25
2023-02-19T16:22:43.473Z,106.58
2023-02-19T16:23:43.439Z,110.58
2023-02-19T16:24:43.403Z,97.88
2023-02-19T16:25:43.376Z,90.32
2023-02-19T16:26:43.342Z,100.44
2023-02-19T16:27:43.314Z,99.55
2023-02-19T16:28:43.279Z,94.91
2023-02-19T16:29:43.246Z,97.50
2023-02-19T16:30:43.227Z,110.13
2023-02-19T16:31:43.268Z,112.84
2023-02-19T16:32:43.174Z,115.74
2023-02-19T16:33:43.143Z,118.22
2023-02-19T16:34:43.124Z,117.85
2023-02-19T16:35:43.088Z,115.75
2023-02-19T16:36:43.064Z,114.04
2023-02-19T16:37:43.047Z,121.74
2023-02-19T16:38:43.014Z,120.95
2023-02-19T16:39:42.981Z,124.46
2023-02-19T16:40:42.965Z,119.27
2023-02-19T16:41:42.935Z,109.94
2023-02-19T16:42:42.930Z,114.45
2023-02-19T16:43:42.922Z,114.70
2023-02-19T16:44:42.901Z,121.28
2023-02-19T16:45:42.908Z,120.56
2023-02-19T16:46:42.895Z,120.59
2023-02-19T16:47:42.868Z,124.11
2023-02-19T16:48:42.860Z,124.27
2023-02-19T16:49:42.844Z,117.03
2023-02-19T16:50:42.839Z,122.23
2023-02-19T16:51:42.828Z,122.92
2023-02-19T16:52:42.819Z,121.06
2023-02-19T16:53:42.802Z,120.87
2023-02-19T16:54:42.784Z,125.67
2023-02-19T16:55:42.777Z,119.51
2023-02-19T16:56:42.775Z,112.44
2023-02-19T16:57:42.740Z,110.26
2023-02-19T16:58:42.722Z,117.42
2023-02-19T16:59:42.726Z,115.38
2023-02-19T17:00:42.711Z,113.29
2023-02-19T17:01:42.683Z,108.84
2023-02-19T17:02:42.676Z,102.03
2023-02-19T17:03:42.710Z,111.34
2023-02-19T17:04:42.663Z,115.05
2023-02-19T17:05:42.630Z,113.86
2023-02-19T17:06:42.603Z,110.89
2023-02-19T17:07:42.581Z,101.43
2023-02-19T17:08:42.557Z,106.92
2023-02-19T17:09:42.549Z,116.55
2023-02-19T17:10:42.511Z,116.78
2023-02-19T17:11:42.488Z,126.39
2023-02-19T17:12:42.472Z,129.95
2023-02-19T17:13:42.455Z,125.31
2023-02-19T17:14:42.422Z,126.03
2023-02-19T17:15:42.409Z,127.20
2023-02-19T17:16:42.412Z,131.68
2023-02-19T17:17:42.400Z,127.20
2023-02-19T17:18:42.343Z,129.55
2023-02-19T17:19:42.333Z,125.66
2023-02-19T17:20:42.296Z,126.95
2023-02-19T17:21:42.283Z,125.41
2023-02-19T17:22:42.250Z,120.02
2023-02-19T17:23:42.250Z,131.39
2023-02-19T17:24:42.202Z,129.98
2023-02-19T17:25:42.190Z,125.49
2023-02-19T17:26:42.167Z,125.23
2023-02-19T17:27:42.152Z,124.68
2023-02-19T17:28:42.137Z,118.50
2023-02-19T17:29:42.120Z,108.88
2023-02-19T17:30:42.115Z,94.49
2023-02-19T17:31:42.165Z,113.89
2023-02-19T17:32:42.056Z,114.06
2023-02-19T17:33:42.032Z,113.76
2023-02-19T17:34:42.012Z,118.74
2023-02-19T17:35:42.011Z,122.74
2023-02-19T17:36:41.978Z,128.82
2023-02-19T17:37:41.947Z,132.92
2023-02-19T17:38:41.930Z,121.30
2023-02-19T17:39:41.917Z,113.49
2023-02-19T17:40:41.890Z,125.35
2023-02-19T17:41:41.853Z,112.11
2023-02-19T17:50:41.640Z,122.94
2023-02-19T17:51:41.640Z,124.01
2023-02-19T17:52:41.597Z,120.89
2023-02-19T17:53:41.680Z,127.73
2023-02-19T17:54:41.714Z,128.25
2023-02-19T17:55:41.531Z,142.17
2023-02-19T17:56:41.510Z,141.16
2023-02-19T17:57:41.496Z,148.56
2023-02-19T17:58:41.461Z,145.60
2023-02-19T17:59:41.450Z,143.07
2023-02-19T18:00:41.423Z,138.90
2023-02-19T18:01:41.584Z,131.32
2023-02-19T18:02:41.372Z,132.22
2023-02-19T18:03:41.402Z,140.62
2023-02-19T18:04:41.337Z,137.68
2023-02-19T18:05:41.312Z,142.92
2023-02-19T18:06:41.327Z,121.24
2023-02-19T18:07:41.306Z,131.05
2023-02-19T18:08:41.274Z,137.43
2023-02-19T18:09:41.249Z,152.22
2023-02-19T18:10:41.267Z,150.49
2023-02-19T21:52:37.855Z,223.18
2023-02-19T21:53:37.841Z,214.92
2023-02-19T21:54:37.826Z,210.88
2023-02-19T21:55:38.646Z,215.44
2023-02-19T21:56:37.794Z,219.03
2023-02-19T21:57:37.774Z,219.14
2023-02-19T21:58:37.774Z,219.64
2023-02-19T21:59:37.740Z,227.91
2023-02-19T22:00:37.767Z,223.36
2023-02-19T22:01:37.711Z,221.30
2023-02-19T22:02:37.754Z,215.33
2023-02-19T22:03:37.685Z,221.95
2023-02-19T22:04:37.690Z,231.15
2023-02-19T22:05:37.649Z,230.89
2023-02-19T22:06:37.636Z,225.65
2023-02-19T22:07:37.637Z,229.77
2023-02-19T22:08:37.612Z,228.39
2023-02-19T22:09:37.606Z,218.25
2023-02-19T22:10:37.569Z,220.83
2023-02-19T22:11:37.550Z,223.94
2023-02-19T22:12:37.520Z,231.61
2023-02-19T22:13:37.512Z,233.87
2023-02-19T22:14:37.477Z,238.58
2023-02-19T22:15:37.460Z,236.18
2023-02-19T22:16:37.518Z,235.18
2023-02-19T22:17:37.432Z,237.78
2023-02-19T22:18:37.413Z,235.56
2023-02-19T22:19:37.398Z,241.34
2023-02-19T22:20:37.389Z,245.90
2023-02-19T22:21:37.363Z,240.06
2023-02-19T22:22:37.350Z,247.28
2023-02-19T22:23:37.335Z,242.98
2023-02-19T22:24:37.318Z,241.60
2023-02-19T22:25:37.317Z,230.34
2023-02-19T22:26:37.287Z,233.65
2023-02-19T22:27:37.258Z,235.66
2023-02-19T22:28:37.238Z,238.77
2023-02-19T22:29:37.227Z,241.94
2023-02-19T22:30:37.265Z,240.50
2023-02-19T22:31:37.330Z,236.38
2023-02-19T22:32:37.339Z,243.80
2023-02-19T22:33:37.162Z,240.23
2023-02-19T22:34:37.144Z,244.55
2023-02-19T22:35:37.132Z,244.07
2023-02-19T22:36:37.142Z,246.45
2023-02-19T22:37:37.098Z,237.94
2023-02-19T22:38:37.087Z,235.91
2023-02-19T22:39:37.075Z,232.26
2023-02-19T22:40:37.079Z,242.06
2023-02-19T22:41:37.056Z,239.97
2023-02-19T22:42:37.035Z,241.92
2023-02-19T22:43:37.027Z,237.18
2023-02-19T22:44:37.015Z,236.34
2023-02-19T22:45:37.028Z,225.66
2023-02-19T22:46:36.995Z,234.25
2023-02-19T22:47:36.975Z,232.77
2023-02-19T22:48:36.966Z,237.42
2023-02-19T22:49:36.940Z,231.74
2023-02-19T22:50:36.932Z,231.32
2023-02-19T22:51:36.920Z,236.75
2023-02-19T22:52:36.903Z,237.49
2023-02-19T22:53:36.898Z,237.17
2023-02-19T22:54:36.889Z,238.91
2023-02-19T22:55:36.881Z,242.31
2023-02-19T22:56:36.843Z,233.42
2023-02-19T22:57:36.824Z,223.67
2023-02-19T22:58:36.826Z,229.33
2023-02-19T22:59:36.831Z,238.14
2023-02-19T23:00:36.792Z,240.93
2023-02-19T23:01:36.783Z,241.54
2023-02-19T23:02:36.767Z,239.17
2023-02-19T23:03:36.754Z,241.72
2023-02-19T23:04:36.761Z,238.93
2023-02-19T23:05:36.735Z,239.15
2023-02-19T23:06:36.733Z,238.31
2023-02-19T23:07:36.712Z,242.15
2023-02-19T23:08:36.707Z,241.22
2023-02-19T23:09:36.696Z,239.46
2023-02-19T23:10:36.679Z,231.07
2023-02-19T23:11:36.677Z,230.82
2023-02-19T23:12:36.669Z,234.27
2023-02-19T23:13:36.655Z,242.72
2023-02-19T23:14:36.641Z,238.05
2023-02-19T23:15:36.627Z,246.83
2023-02-19T23:16:36.716Z,245.22
2023-02-19T23:17:36.620Z,241.70
2023-02-19T23:18:36.620Z,245.43
2023-02-19T23:19:36.600Z,240.63
2023-02-19T23:20:36.599Z,240.13
2023-02-19T23:21:36.594Z,242.71
2023-02-19T23:22:36.582Z,241.21
2023-02-19T23:23:36.579Z,240.37
2023-02-19T23:24:36.559Z,238.69
2023-02-19T23:25:36.554Z,241.84
2023-02-19T23:26:36.532Z,240.50
2023-02-19T23:27:36.524Z,239.08
2023-02-19T23:28:36.515Z,243.93
2023-02-19T23:29:36.512Z,239.06
2023-02-19T23:30:36.558Z,244.30
2023-02-19T23:31:36.568Z,242.31
2023-02-19T23:32:36.479Z,237.59
2023-02-19T23:33:36.478Z,241.04
2023-02-19T23:34:36.451Z,236.93
2023-02-19T23:35:36.447Z,235.80
2023-02-19T23:36:36.430Z,239.70
2023-02-19T23:37:36.415Z,247.77
2023-02-19T23:38:36.402Z,244.21
2023-02-19T23:39:36.383Z,244.30
2023-02-19T23:40:36.383Z,242.63
2023-02-19T23:41:36.376Z,239.11
2023-02-19T23:42:36.369Z,234.88
2023-02-19T23:43:36.355Z,235.13
2023-02-19T23:44:36.352Z,236.11
2023-02-19T23:45:36.352Z,235.47
2023-02-19T23:46:36.320Z,240.15
2023-02-19T23:47:36.329Z,239.66
2023-02-19T23:48:36.296Z,236.47
2023-02-19T23:49:36.345Z,241.16
2023-02-19T23:50:36.287Z,243.45
2023-02-19T23:51:36.263Z,241.99
2023-02-19T23:52:36.264Z,229.55
2023-02-19T23:53:36.251Z,226.06
2023-02-19T23:54:36.234Z,227.40
2023-02-19T23:55:36.218Z,232.92
2023-02-19T23:56:36.216Z,236.56
2023-02-19T23:57:36.201Z,233.87
2023-02-19T23:58:36.191Z,235.23
2023-02-19T23:59:36.172Z,236.34
